createdAt,value
2022-10-21T00:00:53.986Z,12.07
2022-10-21T00:03:23.191Z,11.10
2022-10-21T00:05:51.327Z,12.07
2022-10-21T00:08:19.986Z,13.15
2022-10-21T00:10:52.211Z,11.45
2022-10-21T00:13:20.080Z,11.60
2022-10-21T00:15:59.176Z,11.30
2022-10-21T00:18:27.240Z,11.57
2022-10-21T00:20:54.850Z,11.57
2022-10-21T00:23:22.538Z,14.25
2022-10-21T00:25:49.919Z,11.98
2022-10-21T00:28:17.306Z,12.18
2022-10-21T00:30:45.915Z,11.20
2022-10-21T00:33:13.576Z,11.75
2022-10-21T00:35:41.314Z,10.77
2022-10-21T00:38:08.676Z,10.98
2022-10-21T00:40:36.088Z,9.80
2022-10-21T00:43:03.485Z,10.57
2022-10-21T00:45:31.030Z,10.25
2022-10-21T00:48:09.788Z,10.50
2022-10-21T00:50:45.420Z,9.50
2022-10-21T00:53:15.898Z,10.00
2022-10-21T00:55:52.541Z,9.77
2022-10-21T00:58:24.950Z,9.23
2022-10-21T01:00:56.060Z,9.55
2022-10-21T01:03:27.989Z,8.90
2022-10-21T01:05:59.601Z,8.25
2022-10-21T01:08:28.559Z,8.48
2022-10-21T01:10:56.827Z,8.50
2022-10-21T01:14:02.705Z,9.77
2022-10-21T01:16:42.141Z,8.68
2022-10-21T01:19:39.076Z,9.35
2022-10-21T01:22:33.943Z,8.18
2022-10-21T01:25:24.411Z,8.45
2022-10-21T01:28:29.505Z,7.93
2022-10-21T01:31:20.055Z,8.75
2022-10-21T01:34:01.424Z,8.85
2022-10-21T01:36:43.228Z,10.15
2022-10-21T01:39:23.100Z,8.18
2022-10-21T01:42:03.742Z,9.13
2022-10-21T01:44:41.659Z,9.88
2022-10-21T01:47:16.685Z,8.73
2022-10-21T01:50:16.918Z,7.85
2022-10-21T01:52:48.927Z,8.73
2022-10-21T01:55:21.029Z,9.30
2022-10-21T01:57:56.068Z,9.23
2022-10-21T02:02:52.662Z,9.13
2022-10-21T02:05:23.351Z,9.32
2022-10-21T02:07:50.780Z,9.85
2022-10-21T02:10:19.182Z,9.32
2022-10-21T02:12:49.276Z,9.52
2022-10-21T02:15:18.066Z,9.13
2022-10-21T02:17:55.439Z,11.25
2022-10-21T02:20:26.132Z,9.98
2022-10-21T02:22:53.849Z,9.93
2022-10-21T02:25:25.432Z,9.88
2022-10-21T02:27:53.194Z,8.98
2022-10-21T02:30:21.183Z,9.20
2022-10-21T02:33:17.905Z,10.23
2022-10-21T02:35:48.258Z,10.40
2022-10-21T02:38:24.428Z,9.82
2022-10-21T02:40:56.888Z,10.05
2022-10-21T02:43:46.478Z,10.00
2022-10-21T02:46:14.996Z,9.65
2022-10-21T02:48:47.111Z,10.30
2022-10-21T02:51:15.151Z,11.18
2022-10-21T02:53:43.283Z,10.30
2022-10-21T02:56:10.723Z,10.18
2022-10-21T02:58:38.572Z,10.80
2022-10-21T03:01:06.175Z,9.73
2022-10-21T03:03:33.596Z,11.15
2022-10-21T03:06:01.003Z,10.15
2022-10-21T03:08:28.486Z,9.93
2022-10-21T03:10:55.888Z,10.18
2022-10-21T03:13:23.366Z,10.98
2022-10-21T03:15:51.291Z,10.93
2022-10-21T03:18:19.041Z,10.73
2022-10-21T03:20:50.590Z,12.38
2022-10-21T03:23:19.995Z,11.55
2022-10-21T03:25:47.896Z,11.63
2022-10-21T03:28:15.320Z,12.63
2022-10-21T03:30:42.838Z,12.82
2022-10-21T03:33:10.282Z,11.82
2022-10-21T03:35:37.692Z,12.35
2022-10-21T03:38:05.047Z,12.70
2022-10-21T03:40:32.416Z,12.73
2022-10-21T03:43:00.003Z,12.32
2022-10-21T03:45:27.400Z,12.60
2022-10-21T03:47:54.896Z,12.25
2022-10-21T03:50:26.019Z,12.48
2022-10-21T03:52:55.587Z,12.10
2022-10-21T03:55:25.187Z,12.38
2022-10-21T03:57:53.316Z,12.68
2022-10-21T04:00:21.435Z,13.73
2022-10-21T04:02:49.187Z,13.07
2022-10-21T04:05:17.233Z,12.90
2022-10-21T04:07:48.150Z,13.65
2022-10-21T04:10:18.289Z,13.85
2022-10-21T04:12:46.144Z,14.60
2022-10-21T04:15:14.188Z,14.10
2022-10-21T04:17:42.000Z,13.95
2022-10-21T04:20:10.961Z,14.52
2022-10-21T04:22:38.706Z,12.82
2022-10-21T04:25:06.556Z,14.10
2022-10-21T04:27:34.349Z,14.52
2022-10-21T04:30:01.766Z,14.00
2022-10-21T04:32:29.527Z,13.30
2022-10-21T04:34:56.898Z,13.23
2022-10-21T04:37:24.227Z,13.82
2022-10-21T04:39:51.659Z,14.32
2022-10-21T04:42:19.030Z,13.60
2022-10-21T04:44:46.415Z,13.85
2022-10-21T04:47:13.806Z,14.98
2022-10-21T04:49:41.140Z,14.27
2022-10-21T04:52:08.590Z,14.57
2022-10-21T04:54:36.014Z,14.52
2022-10-21T04:57:03.504Z,15.43
2022-10-21T04:59:30.838Z,15.25
2022-10-21T05:01:58.277Z,14.30
2022-10-21T05:04:25.694Z,13.23
2022-10-21T05:06:53.031Z,14.50
2022-10-21T05:09:20.444Z,13.35
2022-10-21T05:11:47.821Z,14.57
2022-10-21T05:14:17.616Z,14.07
2022-10-21T05:16:47.456Z,14.70
2022-10-21T05:19:15.199Z,16.73
2022-10-21T05:21:42.566Z,15.05
2022-10-21T05:24:10.105Z,15.13
2022-10-21T05:26:37.536Z,15.50
2022-10-21T05:29:05.028Z,15.55
2022-10-21T05:31:32.296Z,15.82
2022-10-21T05:33:59.759Z,17.00
2022-10-21T05:36:27.180Z,16.80
2022-10-21T05:38:54.685Z,18.15
2022-10-21T05:41:22.048Z,15.73
2022-10-21T05:43:49.371Z,19.48
2022-10-21T05:46:16.856Z,18.55
2022-10-21T05:48:44.290Z,19.40
2022-10-21T05:51:11.804Z,20.17
2022-10-21T05:53:39.889Z,21.02
2022-10-21T05:56:08.241Z,20.95
2022-10-21T05:58:35.946Z,21.33
2022-10-21T06:01:03.867Z,92.07
2022-10-21T06:03:33.057Z,23.25
2022-10-21T06:06:03.537Z,22.33
2022-10-21T06:08:32.311Z,21.45
2022-10-21T06:11:04.659Z,20.90
2022-10-21T06:13:32.514Z,21.38
2022-10-21T06:16:00.094Z,27.48
2022-10-21T06:18:28.031Z,21.02
2022-10-21T06:20:55.526Z,21.02
2022-10-21T06:23:23.003Z,21.90
2022-10-21T06:26:05.818Z,21.75
2022-10-21T06:28:35.309Z,21.25
2022-10-21T06:31:03.166Z,20.83
2022-10-21T06:33:30.648Z,20.45
2022-10-21T06:35:58.163Z,19.88
2022-10-21T06:38:26.123Z,20.05
2022-10-21T06:41:00.883Z,21.58
2022-10-21T06:43:28.343Z,21.75
2022-10-21T06:46:04.495Z,20.77
2022-10-21T06:48:33.330Z,21.52
2022-10-21T06:51:03.030Z,21.80
2022-10-21T06:53:32.101Z,21.50
2022-10-21T06:58:30.669Z,20.77
2022-10-21T07:00:58.502Z,19.02
2022-10-21T07:03:25.928Z,20.38
2022-10-21T07:06:02.368Z,20.85
2022-10-21T07:08:46.327Z,20.23
2022-10-21T07:11:15.199Z,22.75
2022-10-21T07:13:42.677Z,21.20
2022-10-21T07:16:22.849Z,21.00
2022-10-21T07:18:50.282Z,21.27
2022-10-21T07:21:19.911Z,20.45
2022-10-21T07:23:51.280Z,18.60
2022-10-21T07:26:20.899Z,17.80
2022-10-21T07:28:48.327Z,17.23
2022-10-21T07:31:20.480Z,14.45
2022-10-21T07:33:48.435Z,13.32
2022-10-21T07:36:22.786Z,14.63
2022-10-21T07:38:51.096Z,13.57
2022-10-21T07:41:21.787Z,15.45
2022-10-21T07:43:49.839Z,15.10
2022-10-21T07:46:18.829Z,13.13
2022-10-21T07:48:46.307Z,12.75
2022-10-21T07:51:16.888Z,12.57
2022-10-21T07:53:44.239Z,12.60
2022-10-21T07:56:15.481Z,12.15
2022-10-21T07:58:44.086Z,12.05
2022-10-21T08:01:11.735Z,10.43
2022-10-21T08:03:40.184Z,9.57
2022-10-21T08:06:09.209Z,10.90
2022-10-21T08:08:37.258Z,10.70
2022-10-21T08:11:05.587Z,9.85
2022-10-21T08:13:33.471Z,8.52
2022-10-21T08:16:01.853Z,8.10
2022-10-21T08:18:30.346Z,9.05
2022-10-21T08:20:57.831Z,7.82
2022-10-21T08:23:26.465Z,8.05
2022-10-21T08:25:56.491Z,8.23
2022-10-21T08:28:26.090Z,6.97
2022-10-21T08:30:53.810Z,5.90
2022-10-21T08:33:21.217Z,5.63
2022-10-21T08:35:48.635Z,5.45
2022-10-21T08:38:16.044Z,5.80
2022-10-21T08:40:50.977Z,5.15
2022-10-21T08:43:24.042Z,5.78
2022-10-21T08:46:18.428Z,6.80
2022-10-21T08:48:55.634Z,4.80
2022-10-21T08:51:42.654Z,5.85
2022-10-21T08:54:20.427Z,5.50
2022-10-21T08:56:50.449Z,5.35
2022-10-21T08:59:23.512Z,5.28
2022-10-21T09:02:08.830Z,6.13
2022-10-21T09:05:07.495Z,4.35
2022-10-21T09:07:57.587Z,4.70
2022-10-21T09:10:50.549Z,4.47
2022-10-21T09:13:25.869Z,4.13
2022-10-21T09:16:11.642Z,8.13
2022-10-21T09:19:02.453Z,4.30
2022-10-21T09:22:05.861Z,4.75
2022-10-21T09:25:03.170Z,4.20
2022-10-21T09:27:51.217Z,13.20
2022-10-21T09:30:24.284Z,4.50
2022-10-21T09:32:59.881Z,4.80
2022-10-21T09:35:37.899Z,3.50
2022-10-21T09:38:23.909Z,3.72
2022-10-21T09:40:59.321Z,3.92
2022-10-21T09:43:27.792Z,4.07
2022-10-21T09:45:55.873Z,5.72
2022-10-21T09:48:42.657Z,4.75
2022-10-21T09:51:35.333Z,4.40
2022-10-21T09:54:14.881Z,3.80
2022-10-21T09:57:19.163Z,4.53
2022-10-21T09:59:51.769Z,3.67
2022-10-21T10:02:26.979Z,3.70
2022-10-21T10:04:54.500Z,3.45
2022-10-21T10:07:26.294Z,3.13
2022-10-21T10:09:53.987Z,3.47
2022-10-21T10:12:26.670Z,3.83
2022-10-21T10:14:55.564Z,4.15
2022-10-21T10:17:30.328Z,2.70
2022-10-21T10:20:17.504Z,7.78
2022-10-21T10:23:09.332Z,4.47
2022-10-21T10:25:39.291Z,3.25
2022-10-21T10:28:09.487Z,3.37
2022-10-21T10:30:43.076Z,3.90
2022-10-21T10:33:16.310Z,4.20
2022-10-21T10:35:51.184Z,5.18
2022-10-21T10:38:36.869Z,2.63
2022-10-21T10:41:17.259Z,2.60
2022-10-21T10:43:49.314Z,2.67
2022-10-21T10:46:36.702Z,3.97
2022-10-21T10:49:12.891Z,2.55
2022-10-21T10:51:43.412Z,2.78
2022-10-21T10:54:20.067Z,2.85
2022-10-21T10:57:04.836Z,3.08
2022-10-21T10:59:40.078Z,2.78
2022-10-21T11:02:11.454Z,2.85
2022-10-21T11:04:47.939Z,3.08
2022-10-21T11:07:47.726Z,3.83
2022-10-21T11:10:36.440Z,3.95
2022-10-21T11:13:16.601Z,4.75
2022-10-21T11:16:17.729Z,3.20
2022-10-21T11:21:47.039Z,3.63
2022-10-21T11:24:29.434Z,8.65
2022-10-21T11:27:11.990Z,3.60
2022-10-21T11:30:08.526Z,3.35
2022-10-21T11:32:47.544Z,3.35
2022-10-21T11:35:22.436Z,3.22
2022-10-21T11:38:14.710Z,4.20
2022-10-21T11:40:49.111Z,3.25
2022-10-21T11:43:37.498Z,3.72
2022-10-21T11:46:21.030Z,3.45
2022-10-21T11:49:03.234Z,4.25
2022-10-21T11:51:51.948Z,3.97
2022-10-21T11:54:25.198Z,3.58
2022-10-21T11:57:04.359Z,3.58
2022-10-21T12:00:00.715Z,4.05
2022-10-21T12:02:43.915Z,4.78
2022-10-21T12:06:00.720Z,5.32
2022-10-21T12:08:39.686Z,4.40
2022-10-21T12:11:19.455Z,3.33
2022-10-21T12:13:52.722Z,4.10
2022-10-21T12:16:32.532Z,3.40
2022-10-21T12:19:05.520Z,3.75
2022-10-21T12:21:39.122Z,4.07
2022-10-21T12:24:25.942Z,4.60
2022-10-21T12:27:02.542Z,4.50
2022-10-21T12:30:10.588Z,4.60
2022-10-21T12:33:13.115Z,3.28
2022-10-21T12:35:46.042Z,2.85
2022-10-21T12:38:22.654Z,5.00
2022-10-21T12:40:51.610Z,3.67
2022-10-21T12:43:28.791Z,3.70
2022-10-21T12:46:06.087Z,4.15
2022-10-21T12:48:43.063Z,3.53
2022-10-21T12:51:23.865Z,3.80
2022-10-21T12:53:57.617Z,4.38
2022-10-21T12:56:38.294Z,4.72
2022-10-21T12:59:07.156Z,5.00
2022-10-21T13:01:37.502Z,5.00
2022-10-21T13:04:06.105Z,4.07
2022-10-21T13:06:55.384Z,4.15
2022-10-21T13:09:54.704Z,5.10
2022-10-21T13:12:24.923Z,4.22
2022-10-21T13:14:56.929Z,4.18
2022-10-21T13:17:28.108Z,4.00
2022-10-21T13:20:16.856Z,4.47
2022-10-21T13:23:06.038Z,4.43
2022-10-21T13:25:35.892Z,4.00
2022-10-21T13:28:12.465Z,3.92
2022-10-21T13:30:58.600Z,3.25
2022-10-21T13:33:29.856Z,4.57
2022-10-21T13:36:11.377Z,4.00
2022-10-21T13:38:49.467Z,4.53
2022-10-21T13:41:27.442Z,5.22
2022-10-21T13:43:58.678Z,5.32
2022-10-21T13:46:36.773Z,4.88
2022-10-21T13:49:23.780Z,4.57
2022-10-21T13:51:52.829Z,4.28
2022-10-21T13:54:20.389Z,5.32
2022-10-21T13:56:48.447Z,5.35
2022-10-21T13:59:27.150Z,4.35
2022-10-21T14:01:58.461Z,6.25
2022-10-21T14:04:31.396Z,4.32
2022-10-21T14:07:05.953Z,5.30
2022-10-21T14:09:48.010Z,4.68
2022-10-21T14:12:26.940Z,4.10
2022-10-21T14:14:57.079Z,5.10
2022-10-21T14:17:27.306Z,4.45
2022-10-21T14:20:06.080Z,5.00
2022-10-21T14:22:33.932Z,3.95
2022-10-21T14:25:02.375Z,4.43
2022-10-21T14:27:32.840Z,4.85
2022-10-21T14:30:04.742Z,4.53
2022-10-21T14:32:32.830Z,4.57
2022-10-21T14:35:20.103Z,4.28
2022-10-21T14:37:50.136Z,4.72
2022-10-21T14:40:39.946Z,4.00
2022-10-21T14:43:27.627Z,3.28
2022-10-21T14:45:55.546Z,5.53
2022-10-21T14:48:32.326Z,3.90
2022-10-21T14:51:03.383Z,5.28
2022-10-21T14:53:37.991Z,4.32
2022-10-21T14:56:06.935Z,4.72
2022-10-21T14:58:38.497Z,4.55
2022-10-21T15:01:20.061Z,4.50
2022-10-21T15:03:54.191Z,5.85
2022-10-21T15:06:24.551Z,4.40
2022-10-21T15:09:05.250Z,3.55
2022-10-21T15:11:39.309Z,4.78
2022-10-21T15:14:12.650Z,5.25
2022-10-21T15:16:52.111Z,3.78
2022-10-21T15:19:26.953Z,4.05
2022-10-21T15:22:00.957Z,3.55
2022-10-21T15:24:40.351Z,4.65
2022-10-21T15:27:14.439Z,5.70
2022-10-21T15:29:48.871Z,4.32
2022-10-21T15:32:21.226Z,3.70
2022-10-21T15:34:53.186Z,3.90
2022-10-21T15:37:20.648Z,6.13
2022-10-21T15:39:48.632Z,4.18
2022-10-21T15:42:18.291Z,3.50
2022-10-21T15:44:51.228Z,4.43
2022-10-21T15:47:18.767Z,4.40
2022-10-21T15:49:46.778Z,5.45
2022-10-21T15:52:14.926Z,4.80
2022-10-21T15:54:42.777Z,6.10
2022-10-21T15:57:17.359Z,4.80
2022-10-21T15:59:45.291Z,5.18
2022-10-21T16:02:16.740Z,4.32
2022-10-21T16:04:45.346Z,4.53
2022-10-21T16:07:28.963Z,5.65
2022-10-21T16:09:57.194Z,4.82
2022-10-21T16:12:24.574Z,4.70
2022-10-21T16:14:52.415Z,3.15
2022-10-21T16:17:20.229Z,4.57
2022-10-21T16:19:47.616Z,4.15
2022-10-21T16:22:20.285Z,4.90
2022-10-21T16:24:47.802Z,4.15
2022-10-21T16:27:30.912Z,4.03
2022-10-21T16:29:59.675Z,3.67
2022-10-21T16:32:27.189Z,8.05
2022-10-21T16:34:54.583Z,4.72
2022-10-21T16:37:25.363Z,3.92
2022-10-21T16:39:53.374Z,3.30
2022-10-21T16:42:20.993Z,4.55
2022-10-21T16:44:49.855Z,3.88
2022-10-21T16:47:20.309Z,3.47
2022-10-21T16:49:49.530Z,4.65
2022-10-21T16:52:17.308Z,4.35
2022-10-21T16:54:48.675Z,4.40
2022-10-21T16:57:16.400Z,5.35
2022-10-21T16:59:43.971Z,4.32
2022-10-21T17:02:17.284Z,4.68
2022-10-21T17:04:45.719Z,3.55
2022-10-21T17:07:13.578Z,3.67
2022-10-21T17:09:41.028Z,4.20
2022-10-21T17:12:11.763Z,3.72
2022-10-21T17:14:39.245Z,3.60
2022-10-21T17:17:09.017Z,4.15
2022-10-21T17:19:36.600Z,3.85
2022-10-21T17:22:04.027Z,4.65
2022-10-21T17:24:31.431Z,3.92
2022-10-21T17:26:58.855Z,4.07
2022-10-21T17:29:26.250Z,4.82
2022-10-21T17:31:53.697Z,5.97
2022-10-21T17:34:29.900Z,5.85
2022-10-21T17:36:57.929Z,5.15
2022-10-21T17:39:25.420Z,4.50
2022-10-21T17:41:53.152Z,4.68
2022-10-21T17:44:21.084Z,5.95
2022-10-21T17:46:51.869Z,4.43
2022-10-21T17:49:19.235Z,4.15
2022-10-21T17:51:46.660Z,3.55
2022-10-21T17:54:14.228Z,4.60
2022-10-21T17:56:41.964Z,4.82
2022-10-21T17:59:09.622Z,4.53
2022-10-21T18:01:37.884Z,5.50
2022-10-21T18:04:05.345Z,3.80
2022-10-21T18:06:32.870Z,4.30
2022-10-21T18:09:00.346Z,4.25
2022-10-21T18:11:28.093Z,3.95
2022-10-21T18:13:56.200Z,3.85
2022-10-21T18:16:24.194Z,3.25
2022-10-21T18:18:52.457Z,6.25
2022-10-21T18:21:22.877Z,4.20
2022-10-21T18:23:53.017Z,5.05
2022-10-21T18:26:25.410Z,4.20
2022-10-21T18:28:58.294Z,4.78
2022-10-21T18:31:31.195Z,4.65
2022-10-21T18:34:00.802Z,4.22
2022-10-21T18:36:28.610Z,4.07
2022-10-21T18:38:57.978Z,4.28
2022-10-21T18:41:27.405Z,5.13
2022-10-21T18:43:57.427Z,4.35
2022-10-21T18:46:24.833Z,7.18
2022-10-21T18:48:52.250Z,4.32
2022-10-21T18:51:22.804Z,3.83
2022-10-21T18:53:52.861Z,4.82
2022-10-21T18:56:22.978Z,4.13
2022-10-21T18:58:51.621Z,4.35
2022-10-21T19:01:20.562Z,4.80
2022-10-21T19:03:50.775Z,4.15
2022-10-21T19:06:31.842Z,5.07
2022-10-21T19:09:03.710Z,4.00
2022-10-21T19:11:31.426Z,5.72
2022-10-21T19:13:58.882Z,4.10
2022-10-21T19:16:26.419Z,7.00
2022-10-21T19:18:54.839Z,5.30
2022-10-21T19:21:23.582Z,4.43
2022-10-21T19:23:51.947Z,3.95
2022-10-21T19:26:22.396Z,4.05
2022-10-21T19:28:51.366Z,3.40
2022-10-21T19:31:21.486Z,3.10
2022-10-21T19:33:48.978Z,3.90
2022-10-21T19:36:16.467Z,4.40
2022-10-21T19:38:44.759Z,3.05
2022-10-21T19:41:16.467Z,3.33
2022-10-21T19:43:44.164Z,2.67
2022-10-21T19:46:18.891Z,3.25
2022-10-21T19:48:48.812Z,3.42
2022-10-21T19:51:18.077Z,5.10
2022-10-21T19:53:46.020Z,2.50
2022-10-21T19:56:14.563Z,6.28
2022-10-21T19:58:46.947Z,3.88
2022-10-21T20:01:16.965Z,3.17
2022-10-21T20:03:46.530Z,4.23
2022-10-21T20:06:17.306Z,4.50
2022-10-21T20:08:44.885Z,3.67
2022-10-21T20:11:15.394Z,3.45
2022-10-21T20:13:43.418Z,4.53
2022-10-21T20:16:19.926Z,3.38
2022-10-21T20:18:47.656Z,3.00
2022-10-21T20:21:15.350Z,3.80
2022-10-21T20:23:43.016Z,4.57
2022-10-21T20:26:10.664Z,3.60
2022-10-21T20:28:38.708Z,4.72
2022-10-21T20:31:09.239Z,4.13
2022-10-21T20:33:40.142Z,3.42
2022-10-21T20:38:37.859Z,3.33
2022-10-21T20:41:07.504Z,3.88
2022-10-21T20:43:36.185Z,3.65
2022-10-21T20:46:05.608Z,3.30
2022-10-21T20:48:34.272Z,3.53
2022-10-21T20:51:11.477Z,4.13
2022-10-21T20:53:42.076Z,3.58
2022-10-21T20:56:09.634Z,3.72
2022-10-21T20:58:39.263Z,2.53
2022-10-21T21:01:28.504Z,5.63
2022-10-21T21:03:58.331Z,4.13
2022-10-21T21:06:26.603Z,4.40
2022-10-21T21:09:15.169Z,3.30
2022-10-21T21:11:41.696Z,3.03
2022-10-21T21:14:09.112Z,2.95
2022-10-21T21:16:36.843Z,3.38
2022-10-21T21:19:06.811Z,2.92
2022-10-21T21:21:36.141Z,4.30
2022-10-21T21:24:04.175Z,4.05
2022-10-21T21:26:36.210Z,4.05
2022-10-21T21:29:06.300Z,2.85
2022-10-21T21:31:35.636Z,3.97
2022-10-21T21:34:03.252Z,3.17
2022-10-21T21:36:30.902Z,3.22
2022-10-21T21:38:58.440Z,4.47
2022-10-21T21:41:26.775Z,2.85
2022-10-21T21:43:56.650Z,3.15
2022-10-21T21:46:25.072Z,2.70
2022-10-21T21:48:55.356Z,4.05
2022-10-21T21:51:25.815Z,3.90
2022-10-21T21:53:53.979Z,3.20
2022-10-21T21:56:23.002Z,2.80
2022-10-21T21:58:51.893Z,2.95
2022-10-21T22:01:22.030Z,5.07
2022-10-21T22:03:51.988Z,16.67
2022-10-21T22:06:21.423Z,4.85
2022-10-21T22:08:50.323Z,3.15
2022-10-21T22:11:21.943Z,2.42
2022-10-21T22:13:49.888Z,3.20
2022-10-21T22:16:19.852Z,2.97
2022-10-21T22:18:47.364Z,3.17
2022-10-21T22:21:17.211Z,2.75
2022-10-21T22:23:45.462Z,2.75
2022-10-21T22:26:15.179Z,2.70
2022-10-21T22:28:44.007Z,6.65
2022-10-21T22:31:14.603Z,3.00
2022-10-21T22:36:11.060Z,3.45
2022-10-21T22:38:38.442Z,2.80
2022-10-21T22:41:08.562Z,3.97
2022-10-21T22:43:38.868Z,4.32
2022-10-21T22:46:21.609Z,3.40
2022-10-21T22:48:53.768Z,3.60
2022-10-21T22:51:21.147Z,3.50
2022-10-21T22:53:53.491Z,4.45
2022-10-21T22:56:25.286Z,7.50
2022-10-21T22:58:52.826Z,2.95
2022-10-21T23:01:21.051Z,3.60
2022-10-21T23:03:48.479Z,3.00
2022-10-21T23:06:16.150Z,4.45
2022-10-21T23:08:43.592Z,2.95
2022-10-21T23:11:11.012Z,2.75
2022-10-21T23:13:47.325Z,3.35
2022-10-21T23:16:23.999Z,4.38
2022-10-21T23:18:51.432Z,4.13
2022-10-21T23:21:18.755Z,3.25
2022-10-21T23:23:46.149Z,2.92
2022-10-21T23:26:13.623Z,2.42
2022-10-21T23:28:41.037Z,2.15
2022-10-21T23:31:08.397Z,4.32
2022-10-21T23:33:35.803Z,2.90
2022-10-21T23:36:03.301Z,2.78
2022-10-21T23:38:30.714Z,2.08
2022-10-21T23:40:58.108Z,2.53
2022-10-21T23:43:25.509Z,2.90
2022-10-21T23:45:52.869Z,3.58
2022-10-21T23:48:20.219Z,8.68
2022-10-21T23:50:47.610Z,3.85
2022-10-21T23:53:14.959Z,2.97
2022-10-21T23:55:42.342Z,2.28
2022-10-21T23:58:09.709Z,3.20
